sensor_id;sensor_type;location;lat;lon;timestamp;P1;P2;P0
46044;PMS7003;31781;54.094;13.428;2023-09-19T00:00:57;2.50;2.50;2.00
46044;PMS7003;31781;54.094;13.428;2023-09-19T00:02:59;2.75;2.75;2.00
46044;PMS7003;31781;54.094;13.428;2023-09-19T00:05:01;3.00;3.00;2.25
46044;PMS7003;31781;54.094;13.428;2023-09-19T00:07:04;3.00;3.00;3.00
46044;PMS7003;31781;54.094;13.428;2023-09-19T00:09:06;2.50;2.50;2.50
46044;PMS7003;31781;54.094;13.428;2023-09-19T00:11:07;2.50;2.50;2.00
46044;PMS7003;31781;54.094;13.428;2023-09-19T00:13:10;2.00;2.00;2.00
46044;PMS7003;31781;54.094;13.428;2023-09-19T00:15:12;3.00;3.00;2.00
46044;PMS7003;31781;54.094;13.428;2023-09-19T00:17:16;2.00;2.00;1.25
46044;PMS7003;31781;54.094;13.428;2023-09-19T00:19:18;3.00;3.00;2.00
46044;PMS7003;31781;54.094;13.428;2023-09-19T00:21:20;3.00;3.00;2.00
46044;PMS7003;31781;54.094;13.428;2023-09-19T00:23:22;3.00;3.00;2.25
46044;PMS7003;31781;54.094;13.428;2023-09-19T00:25:24;3.00;3.00;2.00
46044;PMS7003;31781;54.094;13.428;2023-09-19T00:27:26;3.00;3.00;3.00
46044;PMS7003;31781;54.094;13.428;2023-09-19T00:29:28;2.00;2.00;1.75
46044;PMS7003;31781;54.094;13.428;2023-09-19T00:31:30;3.25;3.25;2.75
46044;PMS7003;31781;54.094;13.428;2023-09-19T00:33:33;3.50;3.50;2.25
46044;PMS7003;31781;54.094;13.428;2023-09-19T00:35:35;3.50;3.50;2.00
46044;PMS7003;31781;54.094;13.428;2023-09-19T00:37:37;2.50;2.50;2.50
46044;PMS7003;31781;54.094;13.428;2023-09-19T00:39:39;4.50;3.00;2.50
46044;PMS7003;31781;54.094;13.428;2023-09-19T00:41:41;2.00;2.00;2.00
46044;PMS7003;31781;54.094;13.428;2023-09-19T00:43:42;1.00;1.00;1.00
46044;PMS7003;31781;54.094;13.428;2023-09-19T00:45:45;2.00;2.00;2.00
46044;PMS7003;31781;54.094;13.428;2023-09-19T00:47:49;3.00;3.00;2.75
46044;PMS7003;31781;54.094;13.428;2023-09-19T00:49:54;3.00;3.00;3.00
46044;PMS7003;31781;54.094;13.428;2023-09-19T00:51:56;2.75;2.75;2.00
46044;PMS7003;31781;54.094;13.428;2023-09-19T00:53:59;2.50;2.00;2.00
46044;PMS7003;31781;54.094;13.428;2023-09-19T00:56:01;3.50;3.50;2.50
46044;PMS7003;31781;54.094;13.428;2023-09-19T00:58:04;2.75;2.75;2.00
46044;PMS7003;31781;54.094;13.428;2023-09-19T01:00:07;4.00;3.00;2.00
46044;PMS7003;31781;54.094;13.428;2023-09-19T01:02:12;3.50;2.50;2.00
46044;PMS7003;31781;54.094;13.428;2023-09-19T01:04:14;2.00;2.00;1.00
46044;PMS7003;31781;54.094;13.428;2023-09-19T01:06:18;3.25;3.25;2.75
46044;PMS7003;31781;54.094;13.428;2023-09-19T01:08:22;2.50;2.50;2.00
46044;PMS7003;31781;54.094;13.428;2023-09-19T01:10:24;2.75;2.75;2.50
46044;PMS7003;31781;54.094;13.428;2023-09-19T01:12:28;2.25;2.25;2.00
46044;PMS7003;31781;54.094;13.428;2023-09-19T01:14:34;1.50;1.50;1.25
46044;PMS7003;31781;54.094;13.428;2023-09-19T01:16:44;3.00;3.00;2.00
46044;PMS7003;31781;54.094;13.428;2023-09-19T01:18:55;2.75;2.75;2.00
46044;PMS7003;31781;54.094;13.428;2023-09-19T01:21:11;3.00;3.00;2.50
46044;PMS7003;31781;54.094;13.428;2023-09-19T01:23:23;3.25;3.25;3.00
46044;PMS7003;31781;54.094;13.428;2023-09-19T01:28:15;3.75;3.00;2.75
46044;PMS7003;31781;54.094;13.428;2023-09-19T01:30:35;2.00;2.00;2.00
46044;PMS7003;31781;54.094;13.428;2023-09-19T01:32:41;3.00;3.00;3.00
46044;PMS7003;31781;54.094;13.428;2023-09-19T01:34:45;3.50;2.00;1.75
46044;PMS7003;31781;54.094;13.428;2023-09-19T01:36:48;2.25;2.25;2.25
46044;PMS7003;31781;54.094;13.428;2023-09-19T01:38:50;2.25;2.25;2.00
46044;PMS7003;31781;54.094;13.428;2023-09-19T01:41:04;4.25;3.75;2.00
46044;PMS7003;31781;54.094;13.428;2023-09-19T01:43:16;3.50;2.00;1.75
46044;PMS7003;31781;54.094;13.428;2023-09-19T01:45:24;3.00;3.00;2.25
46044;PMS7003;31781;54.094;13.428;2023-09-19T01:47:37;3.00;3.00;2.75
46044;PMS7003;31781;54.094;13.428;2023-09-19T01:49:50;2.50;2.50;2.00
46044;PMS7003;31781;54.094;13.428;2023-09-19T01:51:59;3.25;3.25;3.00
46044;PMS7003;31781;54.094;13.428;2023-09-19T01:54:08;1.00;1.00;1.00
46044;PMS7003;31781;54.094;13.428;2023-09-19T01:56:24;4.75;4.00;3.00
46044;PMS7003;31781;54.094;13.428;2023-09-19T01:58:33;2.75;2.75;2.00
46044;PMS7003;31781;54.094;13.428;2023-09-19T02:00:39;2.00;2.00;1.50
46044;PMS7003;31781;54.094;13.428;2023-09-19T02:02:46;2.00;2.00;1.50
46044;PMS7003;31781;54.094;13.428;2023-09-19T02:04:49;3.25;2.25;2.00
46044;PMS7003;31781;54.094;13.428;2023-09-19T02:06:52;3.00;3.00;2.25
46044;PMS7003;31781;54.094;13.428;2023-09-19T02:08:55;2.00;2.00;2.00
46044;PMS7003;31781;54.094;13.428;2023-09-19T02:10:57;3.25;1.50;1.25
46044;PMS7003;31781;54.094;13.428;2023-09-19T02:12:59;2.00;2.00;1.00
46044;PMS7003;31781;54.094;13.428;2023-09-19T02:15:01;3.50;2.25;2.00
46044;PMS7003;31781;54.094;13.428;2023-09-19T02:17:03;2.00;2.00;2.00
46044;PMS7003;31781;54.094;13.428;2023-09-19T02:19:06;1.75;1.75;1.00
46044;PMS7003;31781;54.094;13.428;2023-09-19T02:21:09;2.00;2.00;1.75
46044;PMS7003;31781;54.094;13.428;2023-09-19T02:23:10;1.50;1.50;1.00
46044;PMS7003;31781;54.094;13.428;2023-09-19T02:25:13;2.00;2.00;1.75
46044;PMS7003;31781;54.094;13.428;2023-09-19T02:27:15;2.25;2.25;2.00
46044;PMS7003;31781;54.094;13.428;2023-09-19T02:29:17;1.75;1.75;1.25
46044;PMS7003;31781;54.094;13.428;2023-09-19T02:31:19;1.25;1.25;1.25
46044;PMS7003;31781;54.094;13.428;2023-09-19T02:33:22;1.50;1.50;1.25
46044;PMS7003;31781;54.094;13.428;2023-09-19T02:35:25;3.00;3.00;1.50
46044;PMS7003;31781;54.094;13.428;2023-09-19T02:37:26;2.25;2.25;1.25
46044;PMS7003;31781;54.094;13.428;2023-09-19T02:39:28;2.00;2.00;1.75
46044;PMS7003;31781;54.094;13.428;2023-09-19T02:41:30;3.50;2.25;2.00
46044;PMS7003;31781;54.094;13.428;2023-09-19T02:43:32;3.75;2.00;1.75
46044;PMS7003;31781;54.094;13.428;2023-09-19T02:45:34;1.75;1.75;1.00
46044;PMS7003;31781;54.094;13.428;2023-09-19T02:47:36;1.50;1.50;1.00
46044;PMS7003;31781;54.094;13.428;2023-09-19T02:49:38;1.00;1.00;1.00
46044;PMS7003;31781;54.094;13.428;2023-09-19T02:51:41;1.50;1.50;1.25
46044;PMS7003;31781;54.094;13.428;2023-09-19T02:53:43;2.00;2.00;2.00
46044;PMS7003;31781;54.094;13.428;2023-09-19T02:55:45;0.75;0.75;0.00
46044;PMS7003;31781;54.094;13.428;2023-09-19T02:57:48;1.25;1.25;1.00
46044;PMS7003;31781;54.094;13.428;2023-09-19T02:59:51;1.00;1.00;1.00
46044;PMS7003;31781;54.094;13.428;2023-09-19T03:01:52;1.00;1.00;0.00
46044;PMS7003;31781;54.094;13.428;2023-09-19T03:03:55;0.75;0.75;0.75
46044;PMS7003;31781;54.094;13.428;2023-09-19T03:05:57;2.50;1.25;1.00
46044;PMS7003;31781;54.094;13.428;2023-09-19T03:08:00;0.00;0.00;0.00
46044;PMS7003;31781;54.094;13.428;2023-09-19T03:10:03;1.00;1.00;1.00
46044;PMS7003;31781;54.094;13.428;2023-09-19T03:12:06;0.75;0.75;0.25
46044;PMS7003;31781;54.094;13.428;2023-09-19T03:14:10;0.00;0.00;0.00
46044;PMS7003;31781;54.094;13.428;2023-09-19T03:16:12;0.25;0.25;0.00
46044;PMS7003;31781;54.094;13.428;2023-09-19T03:18:14;1.00;1.00;1.00
46044;PMS7003;31781;54.094;13.428;2023-09-19T03:20:16;1.00;1.00;1.00
46044;PMS7003;31781;54.094;13.428;2023-09-19T03:22:18;1.00;1.00;1.00
46044;PMS7003;31781;54.094;13.428;2023-09-19T03:24:22;1.25;0.75;0.25
46044;PMS7003;31781;54.094;13.428;2023-09-19T03:26:26;1.00;1.00;1.00
46044;PMS7003;31781;54.094;13.428;2023-09-19T03:28:28;2.00;1.00;1.00
46044;PMS7003;31781;54.094;13.428;2023-09-19T03:30:30;1.00;1.00;1.00
46044;PMS7003;31781;54.094;13.428;2023-09-19T03:32:31;0.80;0.80;0.40
46044;PMS7003;31781;54.094;13.428;2023-09-19T03:34:34;1.00;1.00;1.00
46044;PMS7003;31781;54.094;13.428;2023-09-19T03:36:37;0.00;0.00;0.00
46044;PMS7003;31781;54.094;13.428;2023-09-19T03:38:39;0.00;0.00;0.00
46044;PMS7003;31781;54.094;13.428;2023-09-19T03:40:43;0.00;0.00;0.00
46044;PMS7003;31781;54.094;13.428;2023-09-19T03:42:45;0.00;0.00;0.00
46044;PMS7003;31781;54.094;13.428;2023-09-19T03:44:47;3.25;1.00;1.00
46044;PMS7003;31781;54.094;13.428;2023-09-19T03:46:49;1.00;1.00;1.00
46044;PMS7003;31781;54.094;13.428;2023-09-19T03:48:51;1.00;1.00;1.00
46044;PMS7003;31781;54.094;13.428;2023-09-19T03:50:53;1.25;0.50;0.25
46044;PMS7003;31781;54.094;13.428;2023-09-19T03:52:55;0.00;0.00;0.00
46044;PMS7003;31781;54.094;13.428;2023-09-19T03:54:58;0.80;0.80;0.80
46044;PMS7003;31781;54.094;13.428;2023-09-19T03:57:01;2.00;2.00;2.00
46044;PMS7003;31781;54.094;13.428;2023-09-19T03:59:03;2.80;2.80;1.80
46044;PMS7003;31781;54.094;13.428;2023-09-19T04:01:05;3.00;3.00;3.00
46044;PMS7003;31781;54.094;13.428;2023-09-19T04:03:07;5.00;5.00;4.60
46044;PMS7003;31781;54.094;13.428;2023-09-19T04:05:09;2.60;2.00;1.20
46044;PMS7003;31781;54.094;13.428;2023-09-19T04:07:12;1.80;1.80;1.40
46044;PMS7003;31781;54.094;13.428;2023-09-19T04:09:15;0.00;0.00;0.00
46044;PMS7003;31781;54.094;13.428;2023-09-19T04:11:17;1.40;1.40;0.80
46044;PMS7003;31781;54.094;13.428;2023-09-19T04:13:21;0.80;0.80;0.00
46044;PMS7003;31781;54.094;13.428;2023-09-19T04:15:23;2.00;2.00;1.60
46044;PMS7003;31781;54.094;13.428;2023-09-19T04:17:26;3.00;0.80;0.80
46044;PMS7003;31781;54.094;13.428;2023-09-19T04:19:28;1.00;1.00;0.80
46044;PMS7003;31781;54.094;13.428;2023-09-19T04:21:29;0.60;0.60;0.60
46044;PMS7003;31781;54.094;13.428;2023-09-19T04:23:31;0.00;0.00;0.00
46044;PMS7003;31781;54.094;13.428;2023-09-19T04:25:35;1.20;1.20;1.20
46044;PMS7003;31781;54.094;13.428;2023-09-19T04:27:37;1.40;1.40;0.80
46044;PMS7003;31781;54.094;13.428;2023-09-19T04:29:40;4.00;2.80;1.80
46044;PMS7003;31781;54.094;13.428;2023-09-19T04:31:42;0.80;0.80;0.80
46044;PMS7003;31781;54.094;13.428;2023-09-19T04:33:44;3.00;0.80;0.80
46044;PMS7003;31781;54.094;13.428;2023-09-19T04:35:48;0.40;0.40;0.40
46044;PMS7003;31781;54.094;13.428;2023-09-19T04:37:50;0.60;0.60;0.60
46044;PMS7003;31781;54.094;13.428;2023-09-19T04:39:52;0.60;0.60;0.40
46044;PMS7003;31781;54.094;13.428;2023-09-19T04:41:54;1.60;1.60;1.00
46044;PMS7003;31781;54.094;13.428;2023-09-19T04:43:55;0.80;0.80;0.60
46044;PMS7003;31781;54.094;13.428;2023-09-19T04:45:59;2.00;1.60;1.40
46044;PMS7003;31781;54.094;13.428;2023-09-19T04:48:01;1.00;1.00;0.80
46044;PMS7003;31781;54.094;13.428;2023-09-19T04:50:03;1.40;1.40;0.80
46044;PMS7003;31781;54.094;13.428;2023-09-19T04:52:06;1.40;1.40;1.20
46044;PMS7003;31781;54.094;13.428;2023-09-19T04:54:07;1.20;1.20;1.20
46044;PMS7003;31781;54.094;13.428;2023-09-19T04:56:10;3.00;1.25;0.75
46044;PMS7003;31781;54.094;13.428;2023-09-19T04:58:11;0.60;0.60;0.60
46044;PMS7003;31781;54.094;13.428;2023-09-19T05:00:13;0.60;0.60;0.60
46044;PMS7003;31781;54.094;13.428;2023-09-19T05:02:18;2.20;0.80;0.80
46044;PMS7003;31781;54.094;13.428;2023-09-19T05:04:20;1.60;1.60;1.60
46044;PMS7003;31781;54.094;13.428;2023-09-19T05:06:22;1.00;0.80;0.80
46044;PMS7003;31781;54.094;13.428;2023-09-19T05:08:26;1.80;1.80;1.20
46044;PMS7003;31781;54.094;13.428;2023-09-19T05:10:28;1.20;1.20;0.60
46044;PMS7003;31781;54.094;13.428;2023-09-19T05:12:31;2.20;2.20;1.60
46044;PMS7003;31781;54.094;13.428;2023-09-19T05:14:36;0.60;0.60;0.60
46044;PMS7003;31781;54.094;13.428;2023-09-19T05:16:37;3.00;1.80;1.40
46044;PMS7003;31781;54.094;13.428;2023-09-19T05:18:42;1.20;1.20;0.60
46044;PMS7003;31781;54.094;13.428;2023-09-19T05:20:43;0.60;0.60;0.60
46044;PMS7003;31781;54.094;13.428;2023-09-19T05:22:45;1.40;1.40;0.60
46044;PMS7003;31781;54.094;13.428;2023-09-19T05:24:47;3.60;1.60;1.60
46044;PMS7003;31781;54.094;13.428;2023-09-19T05:26:49;1.20;1.20;0.60
46044;PMS7003;31781;54.094;13.428;2023-09-19T05:28:51;1.60;1.60;1.60
46044;PMS7003;31781;54.094;13.428;2023-09-19T05:30:52;2.40;2.40;2.00
46044;PMS7003;31781;54.094;13.428;2023-09-19T05:32:55;2.00;1.60;0.80
46044;PMS7003;31781;54.094;13.428;2023-09-19T05:34:58;1.40;1.40;1.00
46044;PMS7003;31781;54.094;13.428;2023-09-19T05:36:59;2.40;2.40;2.20
46044;PMS7003;31781;54.094;13.428;2023-09-19T05:39:03;1.40;1.40;1.00
46044;PMS7003;31781;54.094;13.428;2023-09-19T05:41:05;2.60;2.60;2.20
46044;PMS7003;31781;54.094;13.428;2023-09-19T05:43:07;2.00;2.00;1.40
46044;PMS7003;31781;54.094;13.428;2023-09-19T05:45:09;2.00;2.00;0.60
46044;PMS7003;31781;54.094;13.428;2023-09-19T05:47:11;0.60;0.60;0.60
46044;PMS7003;31781;54.094;13.428;2023-09-19T05:49:13;1.60;1.60;1.20
46044;PMS7003;31781;54.094;13.428;2023-09-19T05:51:16;1.60;1.60;1.60
46044;PMS7003;31781;54.094;13.428;2023-09-19T05:53:19;2.20;2.20;1.60
46044;PMS7003;31781;54.094;13.428;2023-09-19T05:55:21;2.00;2.00;1.80
46044;PMS7003;31781;54.094;13.428;2023-09-19T05:57:23;0.40;0.40;0.20
46044;PMS7003;31781;54.094;13.428;2023-09-19T05:59:25;1.40;1.00;1.00
46044;PMS7003;31781;54.094;13.428;2023-09-19T06:01:27;2.00;2.00;2.00
46044;PMS7003;31781;54.094;13.428;2023-09-19T06:03:29;2.80;2.80;2.40
46044;PMS7003;31781;54.094;13.428;2023-09-19T06:05:31;2.80;1.00;0.80
46044;PMS7003;31781;54.094;13.428;2023-09-19T06:07:34;1.80;1.80;1.60
46044;PMS7003;31781;54.094;13.428;2023-09-19T06:09:36;2.00;2.00;2.00
46044;PMS7003;31781;54.094;13.428;2023-09-19T06:11:38;2.80;2.80;1.80
46044;PMS7003;31781;54.094;13.428;2023-09-19T06:13:40;1.80;1.80;1.80
46044;PMS7003;31781;54.094;13.428;2023-09-19T06:15:42;2.00;2.00;1.80
46044;PMS7003;31781;54.094;13.428;2023-09-19T06:17:46;2.20;1.00;1.00
46044;PMS7003;31781;54.094;13.428;2023-09-19T06:19:49;2.00;2.00;1.80
46044;PMS7003;31781;54.094;13.428;2023-09-19T06:21:52;1.40;1.40;1.00
46044;PMS7003;31781;54.094;13.428;2023-09-19T06:23:55;2.20;2.20;2.00
46044;PMS7003;31781;54.094;13.428;2023-09-19T06:25:57;2.00;2.00;2.00
46044;PMS7003;31781;54.094;13.428;2023-09-19T06:27:59;3.00;3.00;3.00
46044;PMS7003;31781;54.094;13.428;2023-09-19T06:30:01;2.40;2.40;2.40
46044;PMS7003;31781;54.094;13.428;2023-09-19T06:32:06;2.00;2.00;2.00
46044;PMS7003;31781;54.094;13.428;2023-09-19T06:34:09;1.80;1.80;1.60
46044;PMS7003;31781;54.094;13.428;2023-09-19T06:36:14;2.40;2.40;2.00
46044;PMS7003;31781;54.094;13.428;2023-09-19T06:38:17;2.00;2.00;2.00
46044;PMS7003;31781;54.094;13.428;2023-09-19T06:40:20;3.20;2.00;2.00
46044;PMS7003;31781;54.094;13.428;2023-09-19T06:42:22;0.20;0.20;0.00
46044;PMS7003;31781;54.094;13.428;2023-09-19T06:44:27;2.80;2.80;2.00
46044;PMS7003;31781;54.094;13.428;2023-09-19T06:46:29;2.00;2.00;1.60
46044;PMS7003;31781;54.094;13.428;2023-09-19T06:48:31;2.00;2.00;2.00
46044;PMS7003;31781;54.094;13.428;2023-09-19T06:50:34;2.00;2.00;2.00
46044;PMS7003;31781;54.094;13.428;2023-09-19T06:52:36;1.40;1.40;1.20
46044;PMS7003;31781;54.094;13.428;2023-09-19T06:54:40;2.80;2.80;2.60
46044;PMS7003;31781;54.094;13.428;2023-09-19T06:56:43;2.00;2.00;2.00
46044;PMS7003;31781;54.094;13.428;2023-09-19T06:58:45;2.00;2.00;1.40
46044;PMS7003;31781;54.094;13.428;2023-09-19T07:00:47;0.00;0.00;0.00
46044;PMS7003;31781;54.094;13.428;2023-09-19T07:02:56;2.00;2.00;2.00
46044;PMS7003;31781;54.094;13.428;2023-09-19T07:04:58;0.00;0.00;0.00
46044;PMS7003;31781;54.094;13.428;2023-09-19T07:07:00;4.40;2.00;2.00
46044;PMS7003;31781;54.094;13.428;2023-09-19T07:09:01;2.25;2.25;1.75
46044;PMS7003;31781;54.094;13.428;2023-09-19T07:11:04;1.00;1.00;1.00
46044;PMS7003;31781;54.094;13.428;2023-09-19T07:13:07;1.80;1.80;1.00
46044;PMS7003;31781;54.094;13.428;2023-09-19T07:15:11;2.00;2.00;1.75
46044;PMS7003;31781;54.094;13.428;2023-09-19T07:17:14;1.00;1.00;1.00
46044;PMS7003;31781;54.094;13.428;2023-09-19T07:19:15;2.00;2.00;2.00
46044;PMS7003;31781;54.094;13.428;2023-09-19T07:21:18;2.00;2.00;2.00
46044;PMS7003;31781;54.094;13.428;2023-09-19T07:23:20;1.00;1.00;1.00
46044;PMS7003;31781;54.094;13.428;2023-09-19T07:25:23;1.50;1.00;1.00
46044;PMS7003;31781;54.094;13.428;2023-09-19T07:27:25;1.00;1.00;1.00
46044;PMS7003;31781;54.094;13.428;2023-09-19T07:29:28;1.00;1.00;1.00
46044;PMS7003;31781;54.094;13.428;2023-09-19T07:31:30;1.00;1.00;1.00
46044;PMS7003;31781;54.094;13.428;2023-09-19T07:33:32;1.75;1.75;1.75
46044;PMS7003;31781;54.094;13.428;2023-09-19T07:35:34;1.00;1.00;1.00
46044;PMS7003;31781;54.094;13.428;2023-09-19T07:37:36;2.00;2.00;2.00
46044;PMS7003;31781;54.094;13.428;2023-09-19T07:39:41;1.75;1.00;0.25
46044;PMS7003;31781;54.094;13.428;2023-09-19T07:41:44;1.00;1.00;0.75
46044;PMS7003;31781;54.094;13.428;2023-09-19T07:43:47;1.00;1.00;1.00
46044;PMS7003;31781;54.094;13.428;2023-09-19T07:45:50;1.50;1.50;1.00
46044;PMS7003;31781;54.094;13.428;2023-09-19T07:47:52;1.00;0.00;0.00
46044;PMS7003;31781;54.094;13.428;2023-09-19T07:49:54;3.75;2.00;1.00
46044;PMS7003;31781;54.094;13.428;2023-09-19T07:51:56;2.00;1.00;1.00
46044;PMS7003;31781;54.094;13.428;2023-09-19T07:53:59;1.00;1.00;0.50
46044;PMS7003;31781;54.094;13.428;2023-09-19T07:56:02;2.25;2.25;1.00
46044;PMS7003;31781;54.094;13.428;2023-09-19T07:58:04;0.75;0.75;0.25
46044;PMS7003;31781;54.094;13.428;2023-09-19T08:00:06;1.25;0.25;0.25
46044;PMS7003;31781;54.094;13.428;2023-09-19T08:02:11;0.25;0.25;0.00
46044;PMS7003;31781;54.094;13.428;2023-09-19T08:04:16;2.00;2.00;1.00
46044;PMS7003;31781;54.094;13.428;2023-09-19T08:06:20;0.00;0.00;0.00
46044;PMS7003;31781;54.094;13.428;2023-09-19T08:08:22;3.00;1.00;1.00
46044;PMS7003;31781;54.094;13.428;2023-09-19T08:10:24;2.00;1.00;1.00
46044;PMS7003;31781;54.094;13.428;2023-09-19T08:12:27;0.50;0.50;0.50
46044;PMS7003;31781;54.094;13.428;2023-09-19T08:14:29;1.00;1.00;1.00
46044;PMS7003;31781;54.094;13.428;2023-09-19T08:16:31;1.00;1.00;1.00
46044;PMS7003;31781;54.094;13.428;2023-09-19T08:18:35;0.75;0.75;0.25
46044;PMS7003;31781;54.094;13.428;2023-09-19T08:20:38;2.00;0.00;0.00
46044;PMS7003;31781;54.094;13.428;2023-09-19T08:22:40;1.00;1.00;0.75
46044;PMS7003;31781;54.094;13.428;2023-09-19T08:24:45;0.50;0.50;0.00
46044;PMS7003;31781;54.094;13.428;2023-09-19T08:26:47;0.00;0.00;0.00
46044;PMS7003;31781;54.094;13.428;2023-09-19T08:28:48;1.00;1.00;0.50
46044;PMS7003;31781;54.094;13.428;2023-09-19T08:30:51;1.00;1.00;0.75
46044;PMS7003;31781;54.094;13.428;2023-09-19T08:32:56;0.75;0.75;0.00
46044;PMS7003;31781;54.094;13.428;2023-09-19T08:35:00;1.00;1.00;1.00
46044;PMS7003;31781;54.094;13.428;2023-09-19T08:37:02;0.00;0.00;0.00
46044;PMS7003;31781;54.094;13.428;2023-09-19T08:39:04;0.75;0.75;0.00
46044;PMS7003;31781;54.094;13.428;2023-09-19T08:41:08;1.00;1.00;1.00
46044;PMS7003;31781;54.094;13.428;2023-09-19T08:43:11;1.00;1.00;1.00
46044;PMS7003;31781;54.094;13.428;2023-09-19T08:45:13;0.00;0.00;0.00
46044;PMS7003;31781;54.094;13.428;2023-09-19T08:47:16;1.00;1.00;1.00
46044;PMS7003;31781;54.094;13.428;2023-09-19T08:49:33;0.00;0.00;0.00
46044;PMS7003;31781;54.094;13.428;2023-09-19T08:51:45;1.75;0.50;0.00
46044;PMS7003;31781;54.094;13.428;2023-09-19T08:53:51;0.00;0.00;0.00
46044;PMS7003;31781;54.094;13.428;2023-09-19T08:55:56;0.00;0.00;0.00
46044;PMS7003;31781;54.094;13.428;2023-09-19T08:58:02;0.00;0.00;0.00
46044;PMS7003;31781;54.094;13.428;2023-09-19T09:00:08;0.00;0.00;0.00
46044;PMS7003;31781;54.094;13.428;2023-09-19T09:02:13;0.25;0.25;0.00
46044;PMS7003;31781;54.094;13.428;2023-09-19T09:04:16;2.00;1.00;0.50
46044;PMS7003;31781;54.094;13.428;2023-09-19T09:06:22;0.00;0.00;0.00
46044;PMS7003;31781;54.094;13.428;2023-09-19T09:08:27;0.00;0.00;0.00
46044;PMS7003;31781;54.094;13.428;2023-09-19T09:10:32;0.00;0.00;0.00
46044;PMS7003;31781;54.094;13.428;2023-09-19T09:12:35;0.00;0.00;0.00
46044;PMS7003;31781;54.094;13.428;2023-09-19T09:14:37;0.00;0.00;0.00
46044;PMS7003;31781;54.094;13.428;2023-09-19T09:16:39;0.00;0.00;0.00
46044;PMS7003;31781;54.094;13.428;2023-09-19T09:18:42;0.00;0.00;0.00
46044;PMS7003;31781;54.094;13.428;2023-09-19T09:20:44;0.75;0.75;0.75
46044;PMS7003;31781;54.094;13.428;2023-09-19T09:22:52;0.00;0.00;0.00
46044;PMS7003;31781;54.094;13.428;2023-09-19T09:24:57;0.00;0.00;0.00
46044;PMS7003;31781;54.094;13.428;2023-09-19T09:26:59;0.00;0.00;0.00
46044;PMS7003;31781;54.094;13.428;2023-09-19T09:29:01;0.00;0.00;0.00
46044;PMS7003;31781;54.094;13.428;2023-09-19T09:31:03;1.00;0.25;0.00
46044;PMS7003;31781;54.094;13.428;2023-09-19T09:33:09;1.00;1.00;0.00
46044;PMS7003;31781;54.094;13.428;2023-09-19T09:35:14;0.00;0.00;0.00
46044;PMS7003;31781;54.094;13.428;2023-09-19T09:37:17;1.00;0.00;0.00
46044;PMS7003;31781;54.094;13.428;2023-09-19T09:39:29;0.00;0.00;0.00
46044;PMS7003;31781;54.094;13.428;2023-09-19T09:41:36;0.25;0.25;0.00
46044;PMS7003;31781;54.094;13.428;2023-09-19T09:43:39;0.00;0.00;0.00
46044;PMS7003;31781;54.094;13.428;2023-09-19T09:45:43;0.25;0.25;0.25
46044;PMS7003;31781;54.094;13.428;2023-09-19T09:47:46;0.00;0.00;0.00
46044;PMS7003;31781;54.094;13.428;2023-09-19T09:49:49;0.50;0.50;0.50
46044;PMS7003;31781;54.094;13.428;2023-09-19T09:51:58;0.25;0.00;0.00
46044;PMS7003;31781;54.094;13.428;2023-09-19T09:54:09;0.75;0.50;0.50
46044;PMS7003;31781;54.094;13.428;2023-09-19T09:56:12;1.00;1.00;0.00
46044;PMS7003;31781;54.094;13.428;2023-09-19T09:58:19;0.00;0.00;0.00
46044;PMS7003;31781;54.094;13.428;2023-09-19T10:00:22;0.50;0.50;0.00
46044;PMS7003;31781;54.094;13.428;2023-09-19T10:02:25;0.00;0.00;0.00
46044;PMS7003;31781;54.094;13.428;2023-09-19T10:04:28;1.50;0.50;0.25
46044;PMS7003;31781;54.094;13.428;2023-09-19T10:06:39;0.25;0.00;0.00
46044;PMS7003;31781;54.094;13.428;2023-09-19T10:08:46;0.00;0.00;0.00
46044;PMS7003;31781;54.094;13.428;2023-09-19T10:10:59;0.25;0.25;0.00
46044;PMS7003;31781;54.094;13.428;2023-09-19T10:13:01;2.50;1.00;1.00
46044;PMS7003;31781;54.094;13.428;2023-09-19T10:15:11;2.50;2.50;2.25
46044;PMS7003;31781;54.094;13.428;2023-09-19T10:17:16;1.75;1.75;1.00
46044;PMS7003;31781;54.094;13.428;2023-09-19T10:19:21;0.00;0.00;0.00
46044;PMS7003;31781;54.094;13.428;2023-09-19T10:21:31;3.50;1.00;1.00
46044;PMS7003;31781;54.094;13.428;2023-09-19T10:23:33;0.75;0.75;0.75
46044;PMS7003;31781;54.094;13.428;2023-09-19T10:25:37;0.50;0.25;0.00
46044;PMS7003;31781;54.094;13.428;2023-09-19T10:27:40;0.50;0.50;0.50
46044;PMS7003;31781;54.094;13.428;2023-09-19T10:29:48;0.50;0.50;0.50
46044;PMS7003;31781;54.094;13.428;2023-09-19T10:31:53;1.00;1.00;1.00
46044;PMS7003;31781;54.094;13.428;2023-09-19T10:33:57;0.00;0.00;0.00
46044;PMS7003;31781;54.094;13.428;2023-09-19T10:35:59;0.25;0.25;0.00
46044;PMS7003;31781;54.094;13.428;2023-09-19T10:38:02;0.00;0.00;0.00
46044;PMS7003;31781;54.094;13.428;2023-09-19T10:40:07;0.75;0.75;0.00
46044;PMS7003;31781;54.094;13.428;2023-09-19T10:42:11;1.00;1.00;0.00
46044;PMS7003;31781;54.094;13.428;2023-09-19T10:44:21;1.00;1.00;1.00
46044;PMS7003;31781;54.094;13.428;2023-09-19T10:46:25;1.25;1.25;0.75
46044;PMS7003;31781;54.094;13.428;2023-09-19T10:48:31;0.00;0.00;0.00
46044;PMS7003;31781;54.094;13.428;2023-09-19T10:50:33;0.00;0.00;0.00
46044;PMS7003;31781;54.094;13.428;2023-09-19T10:52:53;0.75;0.75;0.25
46044;PMS7003;31781;54.094;13.428;2023-09-19T10:54:58;1.00;1.00;1.00
46044;PMS7003;31781;54.094;13.428;2023-09-19T10:57:01;1.25;0.50;0.00
46044;PMS7003;31781;54.094;13.428;2023-09-19T10:59:06;0.00;0.00;0.00
46044;PMS7003;31781;54.094;13.428;2023-09-19T11:01:09;2.00;1.00;1.00
46044;PMS7003;31781;54.094;13.428;2023-09-19T11:03:19;1.00;1.00;1.00
46044;PMS7003;31781;54.094;13.428;2023-09-19T11:05:24;1.00;1.00;1.00
46044;PMS7003;31781;54.094;13.428;2023-09-19T11:07:25;1.50;1.00;0.00
46044;PMS7003;31781;54.094;13.428;2023-09-19T11:09:45;1.00;1.00;1.00
46044;PMS7003;31781;54.094;13.428;2023-09-19T11:11:49;1.50;1.50;1.50
46044;PMS7003;31781;54.094;13.428;2023-09-19T11:16:32;1.00;1.00;1.00
46044;PMS7003;31781;54.094;13.428;2023-09-19T11:18:55;4.75;1.00;1.00
46044;PMS7003;31781;54.094;13.428;2023-09-19T11:23:35;0.50;0.00;0.00
46044;PMS7003;31781;54.094;13.428;2023-09-19T11:25:42;0.00;0.00;0.00
46044;PMS7003;31781;54.094;13.428;2023-09-19T11:30:25;1.00;1.00;1.00
46044;PMS7003;31781;54.094;13.428;2023-09-19T11:35:06;1.00;0.25;0.25
46044;PMS7003;31781;54.094;13.428;2023-09-19T11:44:40;1.00;1.00;1.00
46044;PMS7003;31781;54.094;13.428;2023-09-19T11:46:51;1.00;1.00;1.00
46044;PMS7003;31781;54.094;13.428;2023-09-19T11:48:54;0.50;0.50;0.00
46044;PMS7003;31781;54.094;13.428;2023-09-19T11:51:11;1.25;1.00;1.00
46044;PMS7003;31781;54.094;13.428;2023-09-19T11:53:15;1.00;1.00;1.00
46044;PMS7003;31781;54.094;13.428;2023-09-19T11:55:19;1.25;1.25;1.00
46044;PMS7003;31781;54.094;13.428;2023-09-19T11:57:21;1.00;1.00;1.00
46044;PMS7003;31781;54.094;13.428;2023-09-19T11:59:26;1.00;1.00;1.00
46044;PMS7003;31781;54.094;13.428;2023-09-19T12:01:29;1.00;1.00;1.00
46044;PMS7003;31781;54.094;13.428;2023-09-19T12:03:32;2.50;2.00;1.75
46044;PMS7003;31781;54.094;13.428;2023-09-19T12:05:40;1.25;1.00;1.00
46044;PMS7003;31781;54.094;13.428;2023-09-19T12:07:43;1.00;1.00;1.00
46044;PMS7003;31781;54.094;13.428;2023-09-19T12:09:48;1.00;1.00;1.00
46044;PMS7003;31781;54.094;13.428;2023-09-19T12:11:55;1.00;1.00;0.75
46044;PMS7003;31781;54.094;13.428;2023-09-19T12:13:57;1.75;1.75;1.00